createdAt,value
2023-05-11T00:22:05.180Z,13.50
2023-05-11T00:26:34.057Z,13.42
2023-05-11T00:34:58.804Z,13.40
2023-05-11T00:39:27.452Z,13.35
2023-05-11T00:43:51.679Z,13.32
2023-05-11T00:48:12.070Z,13.31
2023-05-11T00:52:40.805Z,13.31
2023-05-11T01:19:23.238Z,13.27
2023-05-11T01:23:58.603Z,13.24
2023-05-11T01:28:28.607Z,13.22
2023-05-11T01:47:20.308Z,13.25
2023-05-11T01:51:49.033Z,13.23
2023-05-11T02:13:30.981Z,13.08
2023-05-11T02:17:59.712Z,13.01
2023-05-11T02:40:01.581Z,12.74
2023-05-11T02:44:31.638Z,12.70
2023-05-11T02:48:56.640Z,12.65
2023-05-11T03:06:16.288Z,12.54
2023-05-11T03:10:39.379Z,12.49
2023-05-11T03:15:09.256Z,12.44
2023-05-11T03:32:34.723Z,12.32
2023-05-11T03:37:04.081Z,12.31
2023-05-11T03:41:32.813Z,12.62
2023-05-11T03:58:55.177Z,13.09
2023-05-11T04:03:24.112Z,12.93
2023-05-11T04:20:18.126Z,13.04
2023-05-11T04:24:49.030Z,13.18
2023-05-11T04:29:17.852Z,13.32
2023-05-11T04:33:46.520Z,13.52
2023-05-11T04:55:38.660Z,13.63
2023-05-11T05:00:07.604Z,13.62
2023-05-11T05:04:38.218Z,13.59
2023-05-11T05:31:29.026Z,14.92
2023-05-11T05:35:58.564Z,15.06
2023-05-11T05:40:27.447Z,15.13
2023-05-11T06:01:44.144Z,15.98
2023-05-11T06:05:53.137Z,16.02
2023-05-11T06:10:15.693Z,16.29
2023-05-11T06:14:32.668Z,16.42
2023-05-11T06:31:08.603Z,17.22
2023-05-11T06:35:25.864Z,17.44
2023-05-11T06:39:54.648Z,17.69
2023-05-11T06:44:01.670Z,17.92
2023-05-11T07:01:08.203Z,18.92
2023-05-11T07:05:31.381Z,19.08
2023-05-11T07:10:01.094Z,19.18
2023-05-11T07:28:30.034Z,19.21
2023-05-11T07:32:59.455Z,19.00
2023-05-11T07:37:24.405Z,18.78
2023-05-11T07:41:49.069Z,18.45
2023-05-11T07:59:06.504Z,18.22
2023-05-11T08:07:14.712Z,18.34
2023-05-11T08:11:16.949Z,18.48
2023-05-11T08:15:37.266Z,18.70
2023-05-11T08:19:48.570Z,19.04
2023-05-11T08:24:17.636Z,19.38
2023-05-11T08:28:38.115Z,19.71
2023-05-11T08:32:30.269Z,19.91
2023-05-11T08:36:18.883Z,19.98
2023-05-11T08:39:43.790Z,20.08
2023-05-11T08:43:46.900Z,20.24
2023-05-11T08:47:23.384Z,20.53
2023-05-11T08:51:12.374Z,20.97
2023-05-11T08:54:49.978Z,21.37
2023-05-11T08:57:51.706Z,21.65
2023-05-11T09:01:39.713Z,21.86
2023-05-11T09:05:54.591Z,22.15
2023-05-11T09:10:14.192Z,22.62
2023-05-11T09:14:12.130Z,22.77
2023-05-11T09:18:21.835Z,22.76
2023-05-11T09:21:32.796Z,22.75
2023-05-11T09:25:10.463Z,22.81
2023-05-11T09:28:46.079Z,22.77
2023-05-11T09:32:36.977Z,22.70
2023-05-11T09:36:16.324Z,22.70
2023-05-11T09:40:27.458Z,22.70
2023-05-11T09:44:23.109Z,22.54
2023-05-11T09:48:10.357Z,22.43
2023-05-11T09:52:06.651Z,22.57
2023-05-11T09:55:29.417Z,23.00
2023-05-11T09:59:23.473Z,23.33
2023-05-11T10:03:26.477Z,23.61
2023-05-11T10:08:09.017Z,23.80
2023-05-11T10:12:21.275Z,24.14
2023-05-11T10:16:51.050Z,24.11
2023-05-11T10:21:22.375Z,24.20
2023-05-11T10:43:11.274Z,24.77
2023-05-11T10:47:55.730Z,24.78
2023-05-11T10:52:35.195Z,24.88
2023-05-11T10:57:04.734Z,24.99
2023-05-11T11:01:27.476Z,25.07
2023-05-11T11:05:28.753Z,25.14
2023-05-11T11:09:49.267Z,25.20
2023-05-11T11:14:01.134Z,25.36
2023-05-11T11:18:19.162Z,25.39
2023-05-11T11:22:42.139Z,25.49
2023-05-11T11:27:30.183Z,25.58
2023-05-11T11:49:45.662Z,26.12
2023-05-11T11:54:18.003Z,26.47
2023-05-11T11:58:47.798Z,26.78
2023-05-11T12:03:16.843Z,27.01
2023-05-11T12:07:46.049Z,27.25
2023-05-11T12:12:07.445Z,27.37
2023-05-11T12:47:02.343Z,26.14
2023-05-11T12:51:20.183Z,26.58
2023-05-11T12:55:34.479Z,27.07
2023-05-11T12:59:58.420Z,27.49
2023-05-11T13:04:24.038Z,27.34
2023-05-11T13:21:59.398Z,26.34
2023-05-11T13:26:25.426Z,25.85
2023-05-11T13:30:47.655Z,25.89
2023-05-11T13:35:11.153Z,25.87
2023-05-11T13:39:40.974Z,25.80
2023-05-11T13:47:26.057Z,26.11
2023-05-11T13:51:54.977Z,25.84
2023-05-11T13:56:25.205Z,25.54
2023-05-11T14:01:07.208Z,25.95
2023-05-11T14:05:25.640Z,26.30
2023-05-11T14:22:35.279Z,26.75
2023-05-11T14:27:04.556Z,26.85
2023-05-11T14:31:33.793Z,26.66
2023-05-11T14:53:13.456Z,26.72
2023-05-11T14:57:43.099Z,26.81
2023-05-11T15:01:49.521Z,26.62
2023-05-11T15:28:06.620Z,26.29
2023-05-11T15:32:35.319Z,26.26
2023-05-11T15:37:15.896Z,26.27
2023-05-11T15:41:44.600Z,25.89
2023-05-11T15:46:13.296Z,25.67
2023-05-11T15:50:43.616Z,25.41
2023-05-11T15:55:12.451Z,25.39
2023-05-11T16:12:25.590Z,25.27
2023-05-11T16:16:54.447Z,25.24
2023-05-11T16:21:24.198Z,24.85
2023-05-11T16:43:07.467Z,23.28
2023-05-11T16:47:18.385Z,22.91
2023-05-11T16:51:39.307Z,22.57
2023-05-11T16:56:08.223Z,22.21
2023-05-11T17:22:26.153Z,20.96
2023-05-11T17:26:48.320Z,20.79
2023-05-11T17:31:11.677Z,20.66
2023-05-11T17:52:43.589Z,20.04
2023-05-11T17:57:08.447Z,19.90
2023-05-11T18:19:02.651Z,19.27
2023-05-11T18:23:31.539Z,19.13
2023-05-11T18:40:55.544Z,18.58
2023-05-11T18:45:13.457Z,18.40
2023-05-11T18:49:43.494Z,18.24
2023-05-11T18:54:06.480Z,18.08
2023-05-11T19:11:27.231Z,17.57
2023-05-11T19:15:50.595Z,17.42
2023-05-11T19:20:19.666Z,17.26
2023-05-11T19:24:49.121Z,17.13
2023-05-11T19:42:10.794Z,16.83
2023-05-11T19:46:33.942Z,16.73
2023-05-11T20:09:38.137Z,16.31
2023-05-11T20:14:07.117Z,16.16
2023-05-11T20:18:36.266Z,16.01
2023-05-11T20:36:05.921Z,15.57
2023-05-11T20:40:34.641Z,15.45
2023-05-11T20:49:09.274Z,15.24
2023-05-11T20:53:38.284Z,15.02
2023-05-11T20:58:08.166Z,14.85
2023-05-11T21:24:14.709Z,13.96
2023-05-11T21:28:43.904Z,13.80
2023-05-11T21:33:14.215Z,13.65
2023-05-11T21:50:30.650Z,13.19
2023-05-11T21:54:59.472Z,13.06
2023-05-11T21:59:28.718Z,12.91
2023-05-11T22:03:55.564Z,12.81
2023-05-11T22:34:26.308Z,12.26
2023-05-11T22:38:56.490Z,12.17
2023-05-11T23:00:34.370Z,11.86
2023-05-11T23:05:03.065Z,11.76
2023-05-11T23:22:17.976Z,11.44
2023-05-11T23:26:47.210Z,11.37
2023-05-11T23:31:16.480Z,11.27
2023-05-11T23:35:46.223Z,11.15
2023-05-11T23:57:25.498Z,10.82
